createdAt,value
2023-01-15T00:00:02.463Z,99421.63
2023-01-15T00:02:38.206Z,99450.41
2023-01-15T00:05:10.994Z,99451.94
2023-01-15T00:07:44.043Z,99398.28
2023-01-15T00:10:17.479Z,99432.66
2023-01-15T00:12:51.776Z,99418.81
2023-01-15T00:15:24.744Z,99412.81
2023-01-15T00:17:57.858Z,99389.22
2023-01-15T00:20:30.802Z,99434.59
2023-01-15T00:23:03.633Z,99419.81
2023-01-15T00:25:54.205Z,99401.72
2023-01-15T00:28:28.334Z,99423.97
2023-01-15T00:31:01.291Z,99426.50
2023-01-15T00:33:35.479Z,99416.59
2023-01-15T00:36:08.920Z,99429.28
2023-01-15T00:38:41.689Z,99423.13
2023-01-15T00:41:14.995Z,99438.13
2023-01-15T00:43:49.164Z,99438.22
2023-01-15T00:46:22.678Z,99447.59
2023-01-15T00:48:55.473Z,99424.25
2023-01-15T00:51:28.483Z,99429.28
2023-01-15T00:54:01.716Z,99424.84
2023-01-15T00:56:34.630Z,99431.25
2023-01-15T00:59:09.091Z,99424.97
2023-01-15T01:01:42.254Z,99393.56
2023-01-15T01:04:15.146Z,99413.13
2023-01-15T01:06:47.934Z,99417.84
2023-01-15T01:09:20.760Z,99403.06
2023-01-15T01:11:53.607Z,99419.56
2023-01-15T01:14:28.504Z,99429.03
2023-01-15T01:17:02.179Z,99419.25
2023-01-15T01:19:34.996Z,99441.31
2023-01-15T01:22:07.884Z,99401.50
2023-01-15T01:24:40.668Z,99429.59
2023-01-15T01:27:13.857Z,99434.50
2023-01-15T01:29:47.973Z,99444.66
2023-01-15T01:32:20.792Z,99446.66
2023-01-15T01:34:54.338Z,99441.03
2023-01-15T01:37:27.384Z,99456.41
2023-01-15T01:40:00.327Z,99466.75
2023-01-15T01:42:33.399Z,99470.38
2023-01-15T01:45:19.706Z,99458.63
2023-01-15T01:47:55.106Z,99450.09
2023-01-15T01:50:30.668Z,99457.81
2023-01-15T01:53:09.212Z,99464.81
2023-01-15T01:55:42.331Z,99441.84
2023-01-15T01:58:16.470Z,99426.09
2023-01-15T02:00:52.715Z,99457.69
2023-01-15T02:03:33.485Z,99448.91
2023-01-15T02:06:11.287Z,99459.66
2023-01-15T02:08:44.114Z,99435.72
2023-01-15T02:11:20.239Z,99458.94
2023-01-15T02:14:01.253Z,99448.47
2023-01-15T02:16:43.105Z,99463.28
2023-01-15T02:19:30.959Z,99443.53
2023-01-15T02:22:12.122Z,99450.56
2023-01-15T02:24:56.303Z,99457.56
2023-01-15T02:27:31.464Z,99448.63
2023-01-15T02:30:11.065Z,99445.28
2023-01-15T02:32:59.469Z,99448.75
2023-01-15T02:35:38.991Z,99447.47
2023-01-15T02:38:18.463Z,99451.56
2023-01-15T02:40:58.828Z,99451.41
2023-01-15T02:43:37.797Z,99460.91
2023-01-15T02:46:12.209Z,99412.84
2023-01-15T02:48:48.719Z,99425.72
2023-01-15T02:51:26.519Z,99436.06
2023-01-15T02:54:03.279Z,99389.94
2023-01-15T02:56:41.558Z,99438.84
2023-01-15T02:59:21.804Z,99434.94
2023-01-15T03:01:59.929Z,99438.84
2023-01-15T03:04:38.933Z,99415.19
2023-01-15T03:07:17.707Z,99449.75
2023-01-15T03:09:51.463Z,99438.00
2023-01-15T03:12:28.501Z,99442.06
2023-01-15T03:15:08.881Z,99436.59
2023-01-15T03:17:49.887Z,99420.25
2023-01-15T03:20:26.413Z,99425.16
2023-01-15T03:23:04.866Z,99408.84
2023-01-15T03:25:43.928Z,99387.44
2023-01-15T03:28:21.005Z,99417.06
2023-01-15T03:30:56.126Z,99381.88
2023-01-15T03:33:30.288Z,99382.69
2023-01-15T03:36:04.931Z,99349.19
2023-01-15T03:38:50.696Z,99401.00
2023-01-15T03:42:04.204Z,99406.47
2023-01-15T03:44:41.804Z,99416.78
2023-01-15T03:47:30.604Z,99412.03
2023-01-15T03:50:12.736Z,99403.38
2023-01-15T03:52:55.565Z,99387.75
2023-01-15T03:55:38.950Z,99406.56
2023-01-15T03:58:19.129Z,99407.69
2023-01-15T04:00:54.891Z,99410.34
2023-01-15T04:03:33.976Z,99406.31
2023-01-15T04:06:08.286Z,99401.00
2023-01-15T04:08:45.694Z,99400.56
2023-01-15T04:11:24.357Z,99396.69
2023-01-15T04:13:59.609Z,99409.22
2023-01-15T04:16:41.593Z,99411.47
2023-01-15T04:19:15.836Z,99412.31
2023-01-15T04:21:56.691Z,99413.28
2023-01-15T04:24:29.576Z,99412.59
2023-01-15T04:27:02.370Z,99402.25
2023-01-15T04:29:35.274Z,99404.75
2023-01-15T04:32:09.239Z,99411.47
2023-01-15T04:34:43.713Z,99427.38
2023-01-15T04:37:18.004Z,99407.13
2023-01-15T04:39:50.807Z,99402.38
2023-01-15T04:42:41.413Z,99405.88
2023-01-15T04:45:14.452Z,99431.84
2023-01-15T04:47:47.293Z,99424.72
2023-01-15T04:50:21.563Z,99425.28
2023-01-15T04:52:54.606Z,99425.97
2023-01-15T04:55:27.667Z,99412.16
2023-01-15T04:58:00.526Z,99415.66
2023-01-15T05:00:33.363Z,99414.28
2023-01-15T05:03:06.198Z,99417.91
2023-01-15T05:05:40.836Z,99407.84
2023-01-15T05:08:13.700Z,99415.94
2023-01-15T05:10:46.530Z,99407.53
2023-01-15T05:13:19.652Z,99417.19
2023-01-15T05:15:52.492Z,99422.38
2023-01-15T05:18:25.344Z,99414.28
2023-01-15T05:20:59.508Z,99419.28
2023-01-15T05:23:32.447Z,99424.88
2023-01-15T05:26:06.467Z,99412.59
2023-01-15T05:28:39.556Z,99422.09
2023-01-15T05:31:14.716Z,99406.72
2023-01-15T05:33:48.665Z,99410.22
2023-01-15T05:36:25.830Z,99407.00
2023-01-15T05:39:01.751Z,99417.91
2023-01-15T05:41:50.696Z,99413.16
2023-01-15T05:44:25.673Z,99407.69
2023-01-15T05:47:00.392Z,99419.00
2023-01-15T05:49:33.466Z,99405.34
2023-01-15T05:52:08.245Z,99413.16
2023-01-15T05:54:41.139Z,99413.97
2023-01-15T05:57:14.225Z,99422.91
2023-01-15T05:59:49.193Z,99415.25
2023-01-15T06:02:21.889Z,99411.34
2023-01-15T06:04:54.704Z,99404.50
2023-01-15T06:07:28.845Z,99413.69
2023-01-15T06:10:02.114Z,99416.78
2023-01-15T06:12:35.226Z,99405.66
2023-01-15T06:15:09.758Z,99416.25
2023-01-15T06:17:42.730Z,99413.47
2023-01-15T06:20:16.339Z,99423.22
2023-01-15T06:22:51.530Z,99425.31
2023-01-15T06:25:24.363Z,99426.88
2023-01-15T06:27:57.200Z,99409.81
2023-01-15T06:30:30.076Z,99422.41
2023-01-15T06:33:02.907Z,99422.94
2023-01-15T06:35:36.486Z,99420.84
2023-01-15T06:38:11.147Z,99420.72
2023-01-15T06:40:43.982Z,99419.44
2023-01-15T06:43:34.598Z,99429.91
2023-01-15T06:46:27.781Z,99418.47
2023-01-15T06:49:00.722Z,99439.41
2023-01-15T06:51:33.569Z,99436.34
2023-01-15T06:54:07.731Z,99424.63
2023-01-15T06:56:40.586Z,99428.94
2023-01-15T06:59:13.785Z,99432.41
2023-01-15T07:01:46.894Z,99431.44
2023-01-15T07:04:20.379Z,99434.81
2023-01-15T07:06:53.263Z,99431.56
2023-01-15T07:09:27.518Z,99420.97
2023-01-15T07:12:00.387Z,99422.78
2023-01-15T07:14:33.283Z,99412.84
2023-01-15T07:17:06.226Z,99409.78
2023-01-15T07:19:39.326Z,99412.44
2023-01-15T07:22:12.271Z,99417.00
2023-01-15T07:24:46.587Z,99421.50
2023-01-15T07:27:19.760Z,99422.06
2023-01-15T07:29:52.651Z,99420.63
2023-01-15T07:32:25.841Z,99422.31
2023-01-15T07:34:58.693Z,99420.34
2023-01-15T07:37:31.529Z,99420.75
2023-01-15T07:40:06.857Z,99435.69
2023-01-15T07:42:57.211Z,99442.66
2023-01-15T07:45:47.747Z,99440.38
2023-01-15T07:48:38.248Z,99454.03
2023-01-15T07:51:11.150Z,99441.31
2023-01-15T07:53:45.061Z,99449.53
2023-01-15T07:56:19.404Z,99460.13
2023-01-15T07:58:52.243Z,99466.41
2023-01-15T08:01:25.195Z,99454.66
2023-01-15T08:03:58.155Z,99463.91
2023-01-15T08:06:31.465Z,99468.50
2023-01-15T08:09:06.416Z,99468.78
2023-01-15T08:11:58.096Z,99467.28
2023-01-15T08:14:48.362Z,99475.72
2023-01-15T08:17:21.769Z,99466.94
2023-01-15T08:19:54.607Z,99473.94
2023-01-15T08:22:27.469Z,99494.22
2023-01-15T08:25:00.432Z,99481.53
2023-01-15T08:27:34.796Z,99482.25
2023-01-15T08:30:10.229Z,99469.78
2023-01-15T08:32:43.495Z,99493.94
2023-01-15T08:35:16.440Z,99469.50
2023-01-15T08:37:49.387Z,99485.13
2023-01-15T08:40:22.346Z,99478.16
2023-01-15T08:42:56.756Z,99487.09
2023-01-15T08:45:29.595Z,99492.97
2023-01-15T08:48:02.372Z,99490.56
2023-01-15T08:50:35.285Z,99476.06
2023-01-15T08:53:08.163Z,99490.44
2023-01-15T08:55:40.966Z,99484.88
2023-01-15T08:58:16.307Z,99475.38
2023-01-15T09:00:49.462Z,99487.69
2023-01-15T09:03:23.115Z,99455.53
2023-01-15T09:05:59.196Z,99502.47
2023-01-15T09:08:31.945Z,99495.50
2023-01-15T09:11:09.501Z,99500.78
2023-01-15T09:13:44.527Z,99481.78
2023-01-15T09:16:17.456Z,99488.41
2023-01-15T09:18:50.328Z,99488.97
2023-01-15T09:21:23.120Z,99494.72
2023-01-15T09:23:56.303Z,99483.56
2023-01-15T09:26:31.460Z,99495.25
2023-01-15T09:29:07.461Z,99502.69
2023-01-15T09:31:40.271Z,99479.31
2023-01-15T09:34:13.213Z,99494.75
2023-01-15T09:36:46.587Z,99492.50
2023-01-15T09:39:19.497Z,99486.59
2023-01-15T09:42:11.091Z,99501.97
2023-01-15T09:45:03.022Z,99489.91
2023-01-15T09:47:40.560Z,99475.31
2023-01-15T09:50:22.641Z,99496.03
2023-01-15T09:53:10.366Z,99492.75
2023-01-15T09:55:47.876Z,99489.19
2023-01-15T09:58:22.897Z,99498.69
2023-01-15T10:00:57.248Z,99508.44
2023-01-15T10:03:37.460Z,99504.38
2023-01-15T10:06:16.501Z,99506.34
2023-01-15T10:08:50.864Z,99504.00
2023-01-15T10:11:46.309Z,99512.19
2023-01-15T10:14:39.050Z,99509.28
2023-01-15T10:17:23.752Z,99525.06
2023-01-15T10:19:58.801Z,99506.78
2023-01-15T10:22:49.673Z,99500.50
2023-01-15T10:25:29.479Z,99508.22
2023-01-15T10:28:14.713Z,99498.28
2023-01-15T10:30:53.323Z,99515.47
2023-01-15T10:33:42.199Z,99511.97
2023-01-15T10:36:20.130Z,99524.94
2023-01-15T10:39:02.316Z,99507.91
2023-01-15T10:41:46.063Z,99537.97
2023-01-15T10:44:25.856Z,99500.38
2023-01-15T10:47:03.818Z,99512.09
2023-01-15T10:49:39.956Z,99518.53
2023-01-15T10:52:25.096Z,99512.09
2023-01-15T10:55:04.815Z,99520.22
2023-01-15T10:57:45.771Z,99513.22
2023-01-15T11:00:21.014Z,99503.16
2023-01-15T11:03:02.274Z,99503.75
2023-01-15T11:05:37.165Z,99515.59
2023-01-15T11:08:58.667Z,99498.56
2023-01-15T11:11:21.950Z,99490.44
2023-01-15T11:14:13.236Z,99524.69
2023-01-15T11:17:03.669Z,99523.31
2023-01-15T11:19:39.628Z,99520.50
2023-01-15T11:22:17.669Z,99526.38
2023-01-15T11:24:52.646Z,99509.31
2023-01-15T11:27:26.676Z,99527.50
2023-01-15T11:30:00.952Z,99508.47
2023-01-15T11:32:35.549Z,99491.56
2023-01-15T11:35:17.500Z,99510.03
2023-01-15T11:37:51.706Z,99507.22
2023-01-15T11:40:25.636Z,99497.28
2023-01-15T11:43:15.914Z,99500.34
2023-01-15T11:46:07.926Z,99468.19
2023-01-15T11:49:03.444Z,99499.75
2023-01-15T11:51:42.410Z,99470.72
2023-01-15T11:54:16.956Z,99481.63
2023-01-15T11:56:49.766Z,99492.31
2023-01-15T11:59:22.955Z,99486.84
2023-01-15T12:02:00.325Z,99489.13
2023-01-15T12:04:37.991Z,99491.78
2023-01-15T12:07:14.695Z,99510.94
2023-01-15T12:10:06.311Z,99469.69
2023-01-15T12:12:49.880Z,99496.09
2023-01-15T12:15:32.866Z,99507.59
2023-01-15T12:18:26.561Z,99498.91
2023-01-15T12:21:05.008Z,99504.00
2023-01-15T12:23:55.614Z,99506.91
2023-01-15T12:26:32.455Z,99494.47
2023-01-15T12:29:11.939Z,99507.31
2023-01-15T12:31:50.137Z,99502.44
2023-01-15T12:34:27.283Z,99481.19
2023-01-15T12:37:05.365Z,99485.81
2023-01-15T12:39:47.232Z,99481.34
2023-01-15T12:42:42.205Z,99467.38
2023-01-15T12:45:19.168Z,99475.88
2023-01-15T12:48:00.115Z,99474.19
2023-01-15T12:50:39.779Z,99482.47
2023-01-15T12:53:18.612Z,99479.94
2023-01-15T12:55:58.523Z,99486.94
2023-01-15T12:58:44.735Z,99470.69
2023-01-15T13:01:24.470Z,99505.78
2023-01-15T13:04:08.486Z,99497.69
2023-01-15T13:06:46.554Z,99486.09
2023-01-15T13:09:36.577Z,99482.88
2023-01-15T13:12:14.409Z,99478.53
2023-01-15T13:14:50.551Z,99481.31
2023-01-15T13:17:32.365Z,99475.88
2023-01-15T13:20:29.053Z,99475.34
2023-01-15T13:27:58.733Z,99479.81
2023-01-15T13:30:48.339Z,99472.97
2023-01-15T13:33:28.649Z,99464.16
2023-01-15T13:36:07.743Z,99467.53
2023-01-15T13:38:44.009Z,99484.44
2023-01-15T13:41:41.348Z,99491.16
2023-01-15T13:44:19.678Z,99501.63
2023-01-15T13:47:03.319Z,99508.06
2023-01-15T13:49:38.114Z,99493.81
2023-01-15T13:52:24.375Z,99524.25
2023-01-15T13:55:01.091Z,99516.44
2023-01-15T13:57:35.632Z,99505.69
2023-01-15T14:00:27.381Z,99530.56
2023-01-15T14:03:02.956Z,99527.91
2023-01-15T14:05:36.597Z,99520.50
2023-01-15T14:08:17.487Z,99500.94
2023-01-15T14:10:50.551Z,99510.97
2023-01-15T14:13:58.453Z,99507.34
2023-01-15T14:16:44.234Z,99523.03
2023-01-15T14:19:39.827Z,99517.72
2023-01-15T14:22:32.809Z,99515.75
2023-01-15T14:25:22.418Z,99518.84
2023-01-15T14:28:08.271Z,99512.09
2023-01-15T14:31:15.387Z,99517.72
2023-01-15T14:33:58.827Z,99534.63
2023-01-15T14:36:39.288Z,99532.22
2023-01-15T14:39:27.266Z,99532.94
2023-01-15T14:42:23.981Z,99493.66
2023-01-15T14:44:59.892Z,99535.59
2023-01-15T14:47:37.195Z,99539.78
2023-01-15T14:50:31.115Z,99542.00
2023-01-15T14:53:18.432Z,99531.38
2023-01-15T14:55:56.515Z,99535.59
2023-01-15T14:58:48.574Z,99548.06
2023-01-15T15:01:35.853Z,99523.03
2023-01-15T15:04:19.032Z,99535.03
2023-01-15T15:06:55.848Z,99534.47
2023-01-15T15:09:34.995Z,99507.94
2023-01-15T15:12:24.671Z,99539.66
2023-01-15T15:15:05.975Z,99537.00
2023-01-15T15:17:45.627Z,99532.81
2023-01-15T15:20:29.137Z,99541.63
2023-01-15T15:23:06.464Z,99540.34
2023-01-15T15:25:43.949Z,99511.56
2023-01-15T15:28:16.724Z,99536.69
2023-01-15T15:30:50.138Z,99556.56
2023-01-15T15:33:26.014Z,99547.06
2023-01-15T15:36:01.203Z,99536.16
2023-01-15T15:38:34.500Z,99535.03
2023-01-15T15:41:13.593Z,99553.22
2023-01-15T15:44:12.189Z,99531.38
2023-01-15T15:47:07.803Z,99570.81
2023-01-15T15:49:41.443Z,99554.56
2023-01-15T15:52:20.876Z,99568.41
2023-01-15T15:55:01.116Z,99553.16
2023-01-15T15:57:36.429Z,99567.16
2023-01-15T16:00:19.556Z,99570.22
2023-01-15T16:02:53.089Z,99585.31
2023-01-15T16:05:30.645Z,99578.88
2023-01-15T16:08:19.239Z,99576.22
2023-01-15T16:10:54.619Z,99574.53
2023-01-15T16:13:32.500Z,99584.78
2023-01-15T16:16:08.164Z,99585.03
2023-01-15T16:18:44.558Z,99569.81
2023-01-15T16:21:20.042Z,99592.03
2023-01-15T16:24:02.331Z,99578.03
2023-01-15T16:26:38.736Z,99582.78
2023-01-15T16:29:20.567Z,99608.34
2023-01-15T16:31:55.948Z,99589.47
2023-01-15T16:34:31.369Z,99580.78
2023-01-15T16:37:04.361Z,99586.25
2023-01-15T16:39:41.385Z,99587.38
2023-01-15T16:42:26.774Z,99582.19
2023-01-15T16:45:02.365Z,99591.38
2023-01-15T16:47:37.102Z,99583.56
2023-01-15T16:50:31.324Z,99596.69
2023-01-15T16:53:06.262Z,99598.22
2023-01-15T16:55:40.821Z,99597.91
2023-01-15T16:58:34.129Z,99607.69
2023-01-15T17:01:35.113Z,99587.13
2023-01-15T17:04:19.894Z,99585.22
2023-01-15T17:06:58.936Z,99595.38
2023-01-15T17:09:35.586Z,99611.72
2023-01-15T17:12:16.309Z,99615.19
2023-01-15T17:14:49.226Z,99604.44
2023-01-15T17:17:29.618Z,99611.56
2023-01-15T17:20:02.630Z,99603.66
2023-01-15T17:22:37.383Z,99607.44
2023-01-15T17:25:26.367Z,99602.53
2023-01-15T17:28:01.799Z,99590.63
2023-01-15T17:30:35.146Z,99604.34
2023-01-15T17:33:14.004Z,99596.50
2023-01-15T17:35:48.409Z,99595.81
2023-01-15T17:38:21.344Z,99607.53
2023-01-15T17:40:57.482Z,99606.16
2023-01-15T17:43:30.333Z,99602.78
2023-01-15T17:46:04.058Z,99599.28
2023-01-15T17:48:38.258Z,99599.06
2023-01-15T17:51:13.321Z,99602.22
2023-01-15T17:53:46.155Z,99620.50
2023-01-15T17:56:36.376Z,99624.97
2023-01-15T17:59:29.840Z,99606.88
2023-01-15T18:02:23.771Z,99598.22
2023-01-15T18:05:15.525Z,99604.28
2023-01-15T18:07:48.572Z,99629.91
2023-01-15T18:10:21.767Z,99616.88
2023-01-15T18:12:54.760Z,99621.63
2023-01-15T18:15:28.512Z,99621.63
2023-01-15T18:18:01.355Z,99627.38
2023-01-15T18:20:35.563Z,99614.63
2023-01-15T18:23:08.413Z,99614.63
2023-01-15T18:25:45.998Z,99608.38
2023-01-15T18:28:18.938Z,99617.72
2023-01-15T18:30:51.810Z,99615.84
2023-01-15T18:33:24.769Z,99628.91
2023-01-15T18:36:07.314Z,99613.00
2023-01-15T18:38:43.567Z,99620.56
2023-01-15T18:41:32.544Z,99633.13
2023-01-15T18:44:25.189Z,99642.94
2023-01-15T18:46:59.530Z,99621.16
2023-01-15T18:49:32.886Z,99634.78
2023-01-15T18:52:25.339Z,99623.09
2023-01-15T18:54:58.488Z,99642.59
2023-01-15T18:57:33.733Z,99645.16
2023-01-15T19:00:07.845Z,99635.94
2023-01-15T19:02:41.039Z,99639.31
2023-01-15T19:05:15.671Z,99644.88
2023-01-15T19:07:49.945Z,99652.44
2023-01-15T19:10:22.837Z,99649.06
2023-01-15T19:12:55.651Z,99649.22
2023-01-15T19:15:46.220Z,99661.78
2023-01-15T19:18:45.159Z,99649.22
2023-01-15T19:21:20.125Z,99645.34
2023-01-15T19:23:54.181Z,99645.34
2023-01-15T19:26:27.042Z,99634.78
2023-01-15T19:28:59.853Z,99646.88
2023-01-15T19:31:39.353Z,99649.91
2023-01-15T19:34:33.033Z,99633.03
2023-01-15T19:37:05.095Z,99648.56
2023-01-15T19:39:39.346Z,99636.00
2023-01-15T19:42:31.537Z,99632.06
2023-01-15T19:45:23.274Z,99626.78
2023-01-15T19:48:13.434Z,99639.31
2023-01-15T19:50:47.412Z,99655.50
2023-01-15T19:53:20.388Z,99612.22
2023-01-15T19:55:54.573Z,99613.34
2023-01-15T19:58:27.490Z,99618.34
2023-01-15T20:01:05.787Z,99615.16
2023-01-15T20:03:38.844Z,99626.97
2023-01-15T20:06:11.735Z,99622.50
2023-01-15T20:08:44.577Z,99614.56
2023-01-15T20:11:19.071Z,99614.97
2023-01-15T20:13:53.157Z,99610.88
2023-01-15T20:16:27.980Z,99601.75
2023-01-15T20:19:00.820Z,99595.38
2023-01-15T20:21:35.808Z,99607.38
2023-01-15T20:24:08.584Z,99593.66
2023-01-15T20:26:42.733Z,99589.81
2023-01-15T20:29:15.900Z,99589.09
2023-01-15T20:31:48.847Z,99594.41
2023-01-15T20:34:21.685Z,99583.06
2023-01-15T20:36:54.804Z,99588.13
2023-01-15T20:39:27.795Z,99580.53
2023-01-15T20:42:19.658Z,99573.75
2023-01-15T20:44:55.288Z,99573.88
2023-01-15T20:47:47.128Z,99569.25
2023-01-15T20:50:20.274Z,99567.00
2023-01-15T20:52:53.682Z,99568.78
2023-01-15T20:55:32.528Z,99554.25
2023-01-15T20:58:09.081Z,99549.94
2023-01-15T21:00:42.507Z,99556.78
2023-01-15T21:03:15.372Z,99549.44
2023-01-15T21:05:48.496Z,99550.91
2023-01-15T21:08:21.539Z,99542.19
2023-01-15T21:10:56.006Z,99537.72
2023-01-15T21:13:31.016Z,99535.44
2023-01-15T21:16:04.990Z,99524.13
2023-01-15T21:18:39.838Z,99519.09
2023-01-15T21:21:14.580Z,99519.81
2023-01-15T21:23:47.612Z,99520.78
2023-01-15T21:26:20.470Z,99505.03
2023-01-15T21:28:56.164Z,99489.13
2023-01-15T21:31:30.333Z,99493.72
2023-01-15T21:34:04.296Z,99492.31
2023-01-15T21:36:37.660Z,99484.81
2023-01-15T21:39:12.485Z,99488.69
2023-01-15T21:42:02.979Z,99473.22
2023-01-15T21:44:43.039Z,99472.72
2023-01-15T21:47:17.645Z,99466.59
2023-01-15T21:49:50.509Z,99465.44
2023-01-15T21:52:23.411Z,99471.06
2023-01-15T21:54:56.343Z,99461.34
2023-01-15T21:57:29.932Z,99449.06
2023-01-15T22:00:06.158Z,99460.53
2023-01-15T22:02:41.115Z,99440.22
2023-01-15T22:05:15.550Z,99436.47
2023-01-15T22:07:48.404Z,99438.09
2023-01-15T22:10:21.228Z,99439.78
2023-01-15T22:12:54.048Z,99429.03
2023-01-15T22:15:28.441Z,99433.63
2023-01-15T22:18:01.487Z,99438.66
2023-01-15T22:20:34.318Z,99434.09
2023-01-15T22:23:07.170Z,99432.59
2023-01-15T22:25:42.913Z,99429.22
2023-01-15T22:28:15.721Z,99416.94
2023-01-15T22:30:50.113Z,99422.50
2023-01-15T22:33:23.273Z,99403.78
2023-01-15T22:35:59.988Z,99400.88
2023-01-15T22:38:33.435Z,99405.47
2023-01-15T22:41:06.414Z,99398.75
2023-01-15T22:43:39.577Z,99398.19
2023-01-15T22:46:15.022Z,99408.91
2023-01-15T22:48:47.934Z,99384.44
2023-01-15T22:51:20.827Z,99385.28
2023-01-15T22:53:54.084Z,99387.34
2023-01-15T22:56:27.031Z,99390.25
2023-01-15T22:59:00.109Z,99394.69
2023-01-15T23:01:34.992Z,99380.13
2023-01-15T23:04:09.331Z,99389.31
2023-01-15T23:06:42.675Z,99378.28
2023-01-15T23:09:16.927Z,99369.44
2023-01-15T23:11:51.506Z,99371.44
2023-01-15T23:14:24.654Z,99360.66
2023-01-15T23:16:58.926Z,99353.97
2023-01-15T23:19:32.224Z,99354.41
2023-01-15T23:22:05.270Z,99344.31
2023-01-15T23:24:38.345Z,99338.34
2023-01-15T23:27:13.781Z,99324.91
2023-01-15T23:29:46.609Z,99330.41
2023-01-15T23:32:20.828Z,99331.69
2023-01-15T23:34:53.881Z,99321.44
2023-01-15T23:37:26.727Z,99318.38
2023-01-15T23:39:59.550Z,99306.13
2023-01-15T23:42:50.115Z,99306.44
2023-01-15T23:45:40.360Z,99309.09
2023-01-15T23:48:14.530Z,99292.94
2023-01-15T23:50:47.423Z,99291.72
2023-01-15T23:53:21.178Z,99283.97
2023-01-15T23:55:54.382Z,99269.13
2023-01-15T23:58:27.369Z,99281.41
